createdAt,value
2023-04-15T00:00:42.230Z,99367.69
2023-04-15T00:03:10.629Z,99371.25
2023-04-15T00:05:38.836Z,99373.94
2023-04-15T00:08:07.739Z,99375.81
2023-04-15T00:10:35.829Z,99370.75
2023-04-15T00:13:04.438Z,99374.31
2023-04-15T00:15:33.797Z,99379.72
2023-04-15T00:18:02.452Z,99371.19
2023-04-15T00:20:30.483Z,99386.13
2023-04-15T00:22:59.523Z,99392.19
2023-04-15T00:25:27.619Z,99403.34
2023-04-15T00:27:55.739Z,99403.28
2023-04-15T00:30:25.767Z,99406.72
2023-04-15T00:32:55.556Z,99400.59
2023-04-15T00:35:25.542Z,99409.28
2023-04-15T00:37:53.939Z,99414.44
2023-04-15T00:40:24.744Z,99421.31
2023-04-15T00:42:53.440Z,99422.13
2023-04-15T00:45:21.654Z,99425.53
2023-04-15T00:47:49.879Z,99431.59
2023-04-15T00:50:19.359Z,99427.28
2023-04-15T00:52:47.520Z,99431.81
2023-04-15T00:55:17.029Z,99430.22
2023-04-15T00:57:46.090Z,99436.47
2023-04-15T01:00:14.712Z,99437.47
2023-04-15T01:02:42.954Z,99453.22
2023-04-15T01:05:11.261Z,99446.44
2023-04-15T01:07:40.714Z,99456.06
2023-04-15T01:10:09.773Z,99469.16
2023-04-15T01:12:39.618Z,99464.81
2023-04-15T01:15:11.018Z,99475.06
2023-04-15T01:17:39.802Z,99476.69
2023-04-15T01:20:12.243Z,99475.78
2023-04-15T01:22:42.440Z,99482.78
2023-04-15T01:25:14.015Z,99485.41
2023-04-15T01:27:43.484Z,99494.91
2023-04-15T01:30:12.237Z,99494.06
2023-04-15T01:32:40.314Z,99492.34
2023-04-15T01:35:08.888Z,99495.81
2023-04-15T01:37:38.009Z,99505.38
2023-04-15T01:40:07.060Z,99501.16
2023-04-15T01:42:37.440Z,99501.22
2023-04-15T01:45:08.366Z,99505.66
2023-04-15T01:47:39.363Z,99514.34
2023-04-15T01:50:08.590Z,99520.44
2023-04-15T01:52:36.723Z,99519.66
2023-04-15T01:55:06.260Z,99520.56
2023-04-15T01:57:34.481Z,99524.88
2023-04-15T02:00:02.584Z,99529.25
2023-04-15T02:02:43.046Z,99525.84
2023-04-15T02:05:11.346Z,99531.88
2023-04-15T02:07:39.442Z,99541.34
2023-04-15T02:10:08.035Z,99546.53
2023-04-15T02:12:37.125Z,99544.63
2023-04-15T02:15:05.900Z,99537.59
2023-04-15T02:17:36.444Z,99547.88
2023-04-15T02:20:06.974Z,99544.28
2023-04-15T02:22:35.125Z,99547.63
2023-04-15T02:25:03.198Z,99551.91
2023-04-15T02:27:33.647Z,99550.19
2023-04-15T02:30:01.934Z,99552.75
2023-04-15T02:32:30.102Z,99556.19
2023-04-15T02:34:58.201Z,99564.94
2023-04-15T02:37:28.756Z,99568.47
2023-04-15T02:39:57.200Z,99577.16
2023-04-15T02:42:27.718Z,99576.25
2023-04-15T02:44:56.461Z,99579.69
2023-04-15T02:47:30.431Z,99584.88
2023-04-15T02:50:00.542Z,99587.50
2023-04-15T02:52:31.526Z,99586.63
2023-04-15T02:55:00.924Z,99590.19
2023-04-15T02:57:29.771Z,99584.97
2023-04-15T03:00:00.845Z,99591.06
2023-04-15T03:02:35.385Z,99597.16
2023-04-15T03:05:04.377Z,99597.09
2023-04-15T03:07:33.912Z,99599.72
2023-04-15T03:10:03.572Z,99603.13
2023-04-15T03:12:31.675Z,99598.75
2023-04-15T03:15:02.087Z,99610.94
2023-04-15T03:17:36.621Z,99612.66
2023-04-15T03:20:06.367Z,99612.66
2023-04-15T03:22:35.755Z,99620.53
2023-04-15T03:25:05.242Z,99635.31
2023-04-15T03:27:34.487Z,99635.31
2023-04-15T03:30:05.013Z,99632.69
2023-04-15T03:32:34.759Z,99637.88
2023-04-15T03:35:02.939Z,99640.50
2023-04-15T03:37:31.193Z,99637.97
2023-04-15T03:40:00.622Z,99644.09
2023-04-15T03:42:28.714Z,99649.34
2023-04-15T03:44:56.805Z,99656.38
2023-04-15T03:47:25.075Z,99654.75
2023-04-15T03:49:53.145Z,99661.75
2023-04-15T03:52:21.449Z,99666.91
2023-04-15T03:54:49.485Z,99664.34
2023-04-15T03:57:18.953Z,99667.00
2023-04-15T03:59:46.934Z,99673.13
2023-04-15T04:02:15.092Z,99675.72
2023-04-15T04:04:43.846Z,99678.41
2023-04-15T04:07:17.046Z,99683.63
2023-04-15T04:09:47.036Z,99681.75
2023-04-15T04:12:15.632Z,99693.09
2023-04-15T04:14:45.075Z,99699.97
2023-04-15T04:17:13.288Z,99692.94
2023-04-15T04:19:41.618Z,99686.75
2023-04-15T04:22:09.665Z,99697.03
2023-04-15T04:24:37.753Z,99704.75
2023-04-15T04:27:05.945Z,99707.31
2023-04-15T04:29:34.045Z,99717.69
2023-04-15T04:32:03.444Z,99727.13
2023-04-15T04:34:32.628Z,99721.88
2023-04-15T04:37:00.797Z,99727.06
2023-04-15T04:39:29.082Z,99727.97
2023-04-15T04:41:57.497Z,99730.63
2023-04-15T04:44:25.701Z,99735.88
2023-04-15T04:46:53.880Z,99733.38
2023-04-15T04:49:23.320Z,99743.09
2023-04-15T04:51:51.503Z,99750.25
2023-04-15T04:54:19.709Z,99755.50
2023-04-15T04:56:47.840Z,99759.06
2023-04-15T04:59:16.872Z,99757.47
2023-04-15T05:01:45.139Z,99765.44
2023-04-15T05:04:13.490Z,99775.88
2023-04-15T05:06:42.922Z,99784.63
2023-04-15T05:09:11.089Z,99790.81
2023-04-15T05:11:39.102Z,99785.69
2023-04-15T05:14:07.642Z,99790.13
2023-04-15T05:16:35.682Z,99792.78
2023-04-15T05:19:03.879Z,99798.91
2023-04-15T05:21:32.830Z,99805.81
2023-04-15T05:24:02.274Z,99815.38
2023-04-15T05:26:30.328Z,99817.16
2023-04-15T05:28:58.754Z,99818.94
2023-04-15T05:31:27.063Z,99827.66
2023-04-15T05:33:55.407Z,99839.06
2023-04-15T05:36:23.453Z,99845.19
2023-04-15T05:38:51.527Z,99841.72
2023-04-15T05:41:22.221Z,99866.03
2023-04-15T05:43:50.390Z,99871.22
2023-04-15T05:46:18.436Z,99867.66
2023-04-15T05:48:46.654Z,99872.72
2023-04-15T05:51:14.724Z,99886.50
2023-04-15T05:53:43.000Z,99892.50
2023-04-15T05:56:11.061Z,99893.28
2023-04-15T05:58:40.483Z,99908.00
2023-04-15T06:01:08.586Z,99916.63
2023-04-15T06:03:36.798Z,99921.84
2023-04-15T06:06:05.065Z,99924.44
2023-04-15T06:08:33.183Z,99929.56
2023-04-15T06:11:01.656Z,99934.69
2023-04-15T06:13:30.505Z,99939.81
2023-04-15T06:15:59.936Z,99940.56
2023-04-15T06:18:28.124Z,99937.78
2023-04-15T06:20:56.238Z,99945.44
2023-04-15T06:23:26.295Z,99944.44
2023-04-15T06:25:55.001Z,99947.72
2023-04-15T06:28:23.113Z,99944.03
2023-04-15T06:30:51.242Z,99944.88
2023-04-15T06:33:20.925Z,99956.25
2023-04-15T06:35:49.729Z,99959.75
2023-04-15T06:38:17.883Z,99970.22
2023-04-15T06:40:46.054Z,99966.84
2023-04-15T06:43:14.141Z,99975.56
2023-04-15T06:45:42.197Z,99972.13
2023-04-15T06:48:10.409Z,99973.84
2023-04-15T06:50:39.782Z,99981.69
2023-04-15T06:53:07.883Z,99986.00
2023-04-15T06:55:35.991Z,99991.16
2023-04-15T06:58:04.096Z,99993.69
2023-04-15T07:00:33.724Z,99997.97
2023-04-15T07:03:03.698Z,100002.25
2023-04-15T07:05:32.467Z,100007.44
2023-04-15T07:08:02.041Z,100017.88
2023-04-15T07:10:30.135Z,100015.28
2023-04-15T07:12:58.370Z,100027.53
2023-04-15T07:15:26.420Z,100033.66
2023-04-15T07:17:54.807Z,100037.03
2023-04-15T07:20:23.290Z,100042.97
2023-04-15T07:22:51.616Z,100050.63
2023-04-15T07:25:21.189Z,100041.84
2023-04-15T07:27:49.320Z,100053.94
2023-04-15T07:30:17.591Z,100052.25
2023-04-15T07:32:45.788Z,100062.78
2023-04-15T07:35:14.752Z,100071.50
2023-04-15T07:37:43.463Z,100071.41
2023-04-15T07:40:12.243Z,100072.91
2023-04-15T07:42:42.306Z,100086.63
2023-04-15T07:45:11.481Z,100089.91
2023-04-15T07:47:40.924Z,100089.22
2023-04-15T07:50:10.717Z,100104.13
2023-04-15T07:52:40.165Z,100105.06
2023-04-15T07:55:09.537Z,100107.63
2023-04-15T07:57:38.395Z,100116.97
2023-04-15T08:00:11.417Z,100120.25
2023-04-15T08:02:42.804Z,100125.41
2023-04-15T08:05:11.524Z,100117.53
2023-04-15T08:07:39.793Z,100128.72
2023-04-15T08:10:08.806Z,100135.66
2023-04-15T08:12:37.126Z,100135.44
2023-04-15T08:15:08.180Z,100136.06
2023-04-15T08:17:36.492Z,100139.25
2023-04-15T08:20:05.936Z,100134.06
2023-04-15T08:22:34.502Z,100139.25
2023-04-15T08:25:03.545Z,100147.88
2023-04-15T08:27:31.755Z,100149.28
2023-04-15T08:30:02.107Z,100156.38
2023-04-15T08:32:32.907Z,100163.28
2023-04-15T08:35:01.833Z,100165.91
2023-04-15T08:37:30.071Z,100186.72
2023-04-15T08:39:58.272Z,100189.94
2023-04-15T08:42:32.765Z,100186.53
2023-04-15T08:45:02.111Z,100191.75
2023-04-15T08:47:32.933Z,100181.19
2023-04-15T08:50:04.493Z,100188.78
2023-04-15T08:52:33.016Z,100189.50
2023-04-15T08:55:03.309Z,100193.09
2023-04-15T08:57:31.546Z,100211.56
2023-04-15T08:59:59.724Z,100215.22
2023-04-15T09:02:28.544Z,100214.41
2023-04-15T09:04:58.086Z,100227.44
2023-04-15T09:07:27.148Z,100229.97
2023-04-15T09:09:55.300Z,100231.66
2023-04-15T09:12:23.449Z,100235.94
2023-04-15T09:14:52.509Z,100240.06
2023-04-15T09:17:21.913Z,100239.88
2023-04-15T09:19:50.173Z,100233.53
2023-04-15T09:22:22.732Z,100242.94
2023-04-15T09:24:50.948Z,100247.38
2023-04-15T09:27:21.410Z,100232.66
2023-04-15T09:29:51.650Z,100237.53
2023-04-15T09:32:21.263Z,100246.38
2023-04-15T09:34:49.538Z,100245.88
2023-04-15T09:37:31.677Z,100253.53
2023-04-15T09:40:00.617Z,100247.06
2023-04-15T09:42:28.931Z,100258.44
2023-04-15T09:44:57.059Z,100263.53
2023-04-15T09:47:31.601Z,100269.69
2023-04-15T09:50:01.076Z,100260.00
2023-04-15T09:52:32.769Z,100262.78
2023-04-15T09:55:01.589Z,100264.41
2023-04-15T09:57:36.649Z,100267.72
2023-04-15T10:00:05.456Z,100279.00
2023-04-15T10:02:35.282Z,100271.75
2023-04-15T10:05:04.152Z,100274.28
2023-04-15T10:07:33.999Z,100281.25
2023-04-15T10:10:03.802Z,100280.34
2023-04-15T10:12:33.625Z,100287.75
2023-04-15T10:15:05.980Z,100288.22
2023-04-15T10:17:35.675Z,100283.44
2023-04-15T10:20:04.980Z,100289.13
2023-04-15T10:22:36.644Z,100297.69
2023-04-15T10:25:10.861Z,100296.09
2023-04-15T10:27:43.017Z,100303.84
2023-04-15T10:30:14.953Z,100303.31
2023-04-15T10:32:45.200Z,100304.03
2023-04-15T10:35:15.074Z,100319.72
2023-04-15T10:37:44.520Z,100315.75
2023-04-15T10:40:27.335Z,100315.69
2023-04-15T10:42:56.611Z,100331.19
2023-04-15T10:45:28.371Z,100329.41
2023-04-15T10:47:58.198Z,100335.63
2023-04-15T10:50:29.781Z,100331.81
2023-04-15T10:53:00.128Z,100329.34
2023-04-15T10:55:33.446Z,100342.25
2023-04-15T10:58:02.711Z,100338.66
2023-04-15T11:00:32.682Z,100348.03
2023-04-15T11:03:07.515Z,100349.72
2023-04-15T11:05:55.943Z,100350.75
2023-04-15T11:09:09.690Z,100352.25
2023-04-15T11:12:13.397Z,100350.53
2023-04-15T11:14:43.406Z,100345.50
2023-04-15T11:17:11.631Z,100350.47
2023-04-15T11:19:40.007Z,100354.28
2023-04-15T11:22:09.423Z,100351.50
2023-04-15T11:24:48.544Z,100360.13
2023-04-15T11:27:23.378Z,100355.31
2023-04-15T11:29:52.379Z,100356.25
2023-04-15T11:32:20.564Z,100359.88
2023-04-15T11:34:49.006Z,100362.50
2023-04-15T11:37:17.168Z,100374.31
2023-04-15T11:39:46.559Z,100368.25
2023-04-15T11:42:18.482Z,100374.25
2023-04-15T11:44:46.600Z,100368.63
2023-04-15T11:47:24.314Z,100373.91
2023-04-15T11:49:52.559Z,100369.88
2023-04-15T11:52:20.721Z,100374.38
2023-04-15T11:54:50.163Z,100366.47
2023-04-15T11:57:18.252Z,100382.28
2023-04-15T11:59:46.481Z,100382.44
2023-04-15T12:02:14.931Z,100390.88
2023-04-15T12:04:43.435Z,100394.69
2023-04-15T12:07:12.707Z,100395.34
2023-04-15T12:09:41.349Z,100403.31
2023-04-15T12:12:12.388Z,100396.91
2023-04-15T12:14:42.417Z,100401.75
2023-04-15T12:17:13.217Z,100414.47
2023-04-15T12:19:43.152Z,100406.75
2023-04-15T12:22:13.349Z,100422.00
2023-04-15T12:24:43.988Z,100414.44
2023-04-15T12:27:14.329Z,100416.19
2023-04-15T12:29:44.244Z,100420.28
2023-04-15T12:32:13.974Z,100411.38
2023-04-15T12:34:44.727Z,100423.25
2023-04-15T12:37:14.455Z,100423.34
2023-04-15T12:39:45.731Z,100427.81
2023-04-15T12:42:16.863Z,100428.22
2023-04-15T12:44:45.363Z,100433.22
2023-04-15T12:47:14.266Z,100436.22
2023-04-15T12:49:42.395Z,100444.94
2023-04-15T12:52:10.612Z,100442.66
2023-04-15T12:54:38.650Z,100445.59
2023-04-15T12:57:08.112Z,100448.44
2023-04-15T12:59:37.843Z,100452.84
2023-04-15T13:02:06.210Z,100452.16
2023-04-15T13:04:34.543Z,100447.94
2023-04-15T13:07:03.004Z,100455.34
2023-04-15T13:09:31.111Z,100457.13
2023-04-15T13:11:59.351Z,100466.72
2023-04-15T13:14:28.186Z,100464.81
2023-04-15T13:16:58.136Z,100476.53
2023-04-15T13:19:26.708Z,100468.97
2023-04-15T13:21:54.862Z,100473.28
2023-04-15T13:24:22.992Z,100476.94
2023-04-15T13:26:51.072Z,100473.34
2023-04-15T13:29:19.141Z,100484.66
2023-04-15T13:31:47.329Z,100477.41
2023-04-15T13:34:16.910Z,100480.44
2023-04-15T13:36:44.974Z,100484.59
2023-04-15T13:39:13.060Z,100491.09
2023-04-15T13:41:41.852Z,100488.53
2023-04-15T13:44:10.033Z,100499.06
2023-04-15T13:46:39.631Z,100488.09
2023-04-15T13:49:07.719Z,100501.81
2023-04-15T13:51:37.324Z,100496.69
2023-04-15T13:54:05.857Z,100494.75
2023-04-15T13:56:34.243Z,100497.91
2023-04-15T13:59:03.401Z,100508.44
2023-04-15T14:01:31.688Z,100495.41
2023-04-15T14:03:59.917Z,100495.19
2023-04-15T14:06:28.570Z,100503.25
2023-04-15T14:08:58.074Z,100497.91
2023-04-15T14:11:26.352Z,100498.69
2023-04-15T14:13:54.415Z,100508.09
2023-04-15T14:16:22.725Z,100511.88
2023-04-15T14:18:50.822Z,100513.94
2023-04-15T14:21:19.060Z,100518.78
2023-04-15T14:23:47.224Z,100522.88
2023-04-15T14:26:16.703Z,100518.34
2023-04-15T14:28:45.193Z,100524.28
2023-04-15T14:31:14.351Z,100524.22
2023-04-15T14:33:42.568Z,100528.03
2023-04-15T14:36:11.258Z,100531.13
2023-04-15T14:38:40.156Z,100524.09
2023-04-15T14:41:09.514Z,100523.72
2023-04-15T14:43:40.897Z,100531.41
2023-04-15T14:46:09.609Z,100531.47
2023-04-15T14:48:38.099Z,100529.75
2023-04-15T14:51:06.535Z,100524.41
2023-04-15T14:53:34.773Z,100532.69
2023-04-15T14:56:03.099Z,100518.72
2023-04-15T14:58:32.841Z,100527.34
2023-04-15T15:01:03.053Z,100523.63
2023-04-15T15:03:32.082Z,100525.97
2023-04-15T15:06:00.338Z,100529.88
2023-04-15T15:08:28.523Z,100529.94
2023-04-15T15:10:56.631Z,100530.78
2023-04-15T15:13:25.432Z,100537.25
2023-04-15T15:15:53.687Z,100532.66
2023-04-15T15:18:25.561Z,100541.19
2023-04-15T15:20:53.781Z,100542.38
2023-04-15T15:23:22.034Z,100549.28
2023-04-15T15:25:50.283Z,100544.91
2023-04-15T15:28:18.544Z,100550.59
2023-04-15T15:30:46.619Z,100549.16
2023-04-15T15:33:14.752Z,100552.31
2023-04-15T15:35:44.274Z,100549.03
2023-04-15T15:38:13.152Z,100545.34
2023-04-15T15:40:41.405Z,100546.09
2023-04-15T15:43:09.567Z,100552.47
2023-04-15T15:45:37.770Z,100550.00
2023-04-15T15:48:06.867Z,100547.31
2023-04-15T15:50:35.542Z,100544.44
2023-04-15T15:53:04.949Z,100545.56
2023-04-15T15:55:33.170Z,100545.16
2023-04-15T15:58:01.302Z,100548.09
2023-04-15T16:00:29.499Z,100537.34
2023-04-15T16:05:29.546Z,100537.13
2023-04-15T16:07:57.728Z,100536.88
2023-04-15T16:10:27.318Z,100539.31
2023-04-15T16:12:56.192Z,100535.97
2023-04-15T16:15:24.540Z,100535.34
2023-04-15T16:17:52.675Z,100538.59
2023-04-15T16:20:20.972Z,100537.97
2023-04-15T16:22:49.151Z,100539.41
2023-04-15T16:25:17.260Z,100532.50
2023-04-15T16:27:59.474Z,100546.75
2023-04-15T16:30:31.733Z,100546.19
2023-04-15T16:32:59.977Z,100549.91
2023-04-15T16:35:28.427Z,100551.91
2023-04-15T16:37:56.649Z,100546.03
2023-04-15T16:40:25.092Z,100556.28
2023-04-15T16:42:54.599Z,100561.41
2023-04-15T16:45:22.672Z,100563.66
2023-04-15T16:47:50.803Z,100565.50
2023-04-15T16:50:19.074Z,100572.75
2023-04-15T16:52:47.197Z,100569.47
2023-04-15T16:55:15.687Z,100576.81
2023-04-15T16:58:00.524Z,100577.03
2023-04-15T17:00:32.978Z,100581.50
2023-04-15T17:03:02.104Z,100582.59
2023-04-15T17:05:30.745Z,100589.47
2023-04-15T17:07:59.371Z,100593.63
2023-04-15T17:10:27.827Z,100593.56
2023-04-15T17:12:57.707Z,100598.81
2023-04-15T17:15:26.188Z,100600.59
2023-04-15T17:17:56.112Z,100592.94
2023-04-15T17:20:24.416Z,100598.41
2023-04-15T17:22:52.633Z,100607.31
2023-04-15T17:25:20.893Z,100606.56
2023-04-15T17:27:49.110Z,100597.75
2023-04-15T17:30:17.246Z,100607.69
2023-04-15T17:32:45.692Z,100613.41
2023-04-15T17:35:15.179Z,100620.88
2023-04-15T17:37:43.382Z,100615.94
2023-04-15T17:40:12.418Z,100613.75
2023-04-15T17:42:40.740Z,100615.09
2023-04-15T17:45:09.585Z,100615.50
2023-04-15T17:47:37.853Z,100617.66
2023-04-15T17:50:06.561Z,100627.81
2023-04-15T17:52:36.094Z,100630.94
2023-04-15T17:55:04.538Z,100635.56
2023-04-15T17:57:32.684Z,100635.66
2023-04-15T18:00:00.802Z,100645.31
2023-04-15T18:02:29.279Z,100643.72
2023-04-15T18:04:58.435Z,100639.56
2023-04-15T18:07:26.738Z,100645.00
2023-04-15T18:09:56.508Z,100643.53
2023-04-15T18:12:24.702Z,100645.47
2023-04-15T18:14:52.855Z,100649.22
2023-04-15T18:17:21.404Z,100640.78
2023-04-15T18:19:49.520Z,100648.09
2023-04-15T18:22:17.651Z,100647.41
2023-04-15T18:24:45.677Z,100646.78
2023-04-15T18:27:15.227Z,100646.09
2023-04-15T18:29:44.010Z,100641.13
2023-04-15T18:32:12.199Z,100645.69
2023-04-15T18:34:40.350Z,100647.63
2023-04-15T18:37:08.584Z,100652.16
2023-04-15T18:39:36.798Z,100650.56
2023-04-15T18:42:05.011Z,100656.75
2023-04-15T18:44:34.531Z,100658.59
2023-04-15T18:47:02.813Z,100671.84
2023-04-15T18:49:33.293Z,100676.34
2023-04-15T18:52:01.709Z,100673.81
2023-04-15T18:54:29.788Z,100679.28
2023-04-15T18:56:58.462Z,100682.13
2023-04-15T18:59:30.525Z,100689.34
2023-04-15T19:02:01.265Z,100674.63
2023-04-15T19:04:29.806Z,100689.53
2023-04-15T19:06:59.002Z,100692.22
2023-04-15T19:09:27.465Z,100691.41
2023-04-15T19:11:56.956Z,100703.72
2023-04-15T19:14:25.451Z,100696.00
2023-04-15T19:16:53.793Z,100706.50
2023-04-15T19:19:23.253Z,100709.22
2023-04-15T19:21:51.568Z,100712.78
2023-04-15T19:24:19.985Z,100721.53
2023-04-15T19:26:51.118Z,100713.78
2023-04-15T19:29:19.446Z,100715.59
2023-04-15T19:31:47.559Z,100719.16
2023-04-15T19:34:15.884Z,100724.38
2023-04-15T19:36:45.518Z,100725.25
2023-04-15T19:39:14.654Z,100729.56
2023-04-15T19:41:44.302Z,100734.78
2023-04-15T19:44:13.723Z,100734.81
2023-04-15T19:46:44.097Z,100733.94
2023-04-15T19:49:12.359Z,100740.06
2023-04-15T19:51:40.431Z,100749.66
2023-04-15T19:54:09.966Z,100754.88
2023-04-15T19:56:38.278Z,100757.53
2023-04-15T19:59:06.636Z,100752.38
2023-04-15T20:01:34.987Z,100740.28
2023-04-15T20:04:04.044Z,100744.66
2023-04-15T20:06:32.682Z,100747.28
2023-04-15T20:09:00.749Z,100743.78
2023-04-15T20:12:48.326Z,100745.50
2023-04-15T20:14:18.684Z,100745.53
2023-04-15T20:16:47.795Z,100746.41
2023-04-15T20:19:16.180Z,100745.53
2023-04-15T20:21:44.203Z,100753.31
2023-04-15T20:24:12.399Z,100750.72
2023-04-15T20:26:41.882Z,100755.88
2023-04-15T20:29:09.948Z,100757.59
2023-04-15T20:31:38.079Z,100759.34
2023-04-15T20:34:06.420Z,100761.06
2023-04-15T20:36:34.538Z,100743.69
2023-04-15T20:39:02.841Z,100747.22
2023-04-15T20:41:31.009Z,100756.81
2023-04-15T20:44:00.537Z,100762.91
2023-04-15T20:46:28.812Z,100761.16
2023-04-15T20:48:56.977Z,100765.47
2023-04-15T20:51:25.170Z,100767.25
2023-04-15T20:53:53.270Z,100773.38
2023-04-15T20:56:21.421Z,100764.69
2023-04-15T20:58:49.533Z,100769.03
2023-04-15T21:01:19.056Z,100771.63
2023-04-15T21:03:47.178Z,100769.91
2023-04-15T21:06:15.563Z,100767.31
2023-04-15T21:08:43.693Z,100768.19
2023-04-15T21:11:11.834Z,100772.50
2023-04-15T21:13:39.923Z,100771.63
2023-04-15T21:16:08.064Z,100774.22
2023-04-15T21:18:37.463Z,100775.06
2023-04-15T21:21:06.100Z,100783.72
2023-04-15T21:23:35.912Z,100780.22
2023-04-15T21:26:04.283Z,100781.94
2023-04-15T21:28:32.878Z,100781.88
2023-04-15T21:31:01.285Z,100792.34
2023-04-15T21:33:29.374Z,100794.09
2023-04-15T21:35:58.794Z,100794.13
2023-04-15T21:38:26.899Z,100790.69
2023-04-15T21:40:55.245Z,100786.31
2023-04-15T21:43:25.673Z,100793.31
2023-04-15T21:46:23.469Z,100787.19
2023-04-15T21:48:42.634Z,100787.16
2023-04-15T21:51:12.359Z,100792.38
2023-04-15T21:53:40.742Z,100792.38
2023-04-15T21:56:09.529Z,100792.38
2023-04-15T21:58:37.922Z,100794.97
2023-04-15T22:01:06.438Z,100794.97
2023-04-15T22:03:35.949Z,100801.94
2023-04-15T22:06:04.814Z,100798.47
2023-04-15T22:08:44.602Z,100803.66
2023-04-15T22:11:26.234Z,100800.16
2023-04-15T22:13:54.737Z,100807.13
2023-04-15T22:16:22.977Z,100813.16
2023-04-15T22:18:51.354Z,100812.28
2023-04-15T22:21:19.841Z,100808.81
2023-04-15T22:23:50.482Z,100823.56
2023-04-15T22:26:18.703Z,100819.19
2023-04-15T22:28:46.943Z,100821.81
2023-04-15T22:31:15.351Z,100817.47
2023-04-15T22:33:43.573Z,100814.88
2023-04-15T22:36:11.755Z,100820.94
2023-04-15T22:38:39.778Z,100820.94
2023-04-15T22:41:09.208Z,100827.94
2023-04-15T22:43:37.386Z,100823.53
2023-04-15T22:46:05.606Z,100818.31
2023-04-15T22:48:33.649Z,100820.03
2023-04-15T22:51:01.851Z,100822.63
2023-04-15T22:53:30.012Z,100818.28
2023-04-15T22:55:58.149Z,100816.53
2023-04-15T22:58:27.538Z,100825.25
2023-04-15T23:00:55.771Z,100816.53
2023-04-15T23:03:23.964Z,100821.72
2023-04-15T23:05:52.148Z,100815.63
2023-04-15T23:08:20.230Z,100824.34
2023-04-15T23:10:49.327Z,100819.13
2023-04-15T23:13:17.479Z,100825.22
2023-04-15T23:15:46.948Z,100818.25
2023-04-15T23:18:15.040Z,100829.59
2023-04-15T23:20:43.173Z,100826.13
2023-04-15T23:23:11.288Z,100816.56
2023-04-15T23:25:39.377Z,100828.75
2023-04-15T23:28:07.591Z,100822.69
2023-04-15T23:30:35.758Z,100827.88
2023-04-15T23:33:05.545Z,100820.94
2023-04-15T23:35:33.819Z,100822.69
2023-04-15T23:38:01.925Z,100817.44
2023-04-15T23:40:30.107Z,100825.25
2023-04-15T23:42:58.366Z,100820.94
2023-04-15T23:45:26.495Z,100820.03
2023-04-15T23:47:54.541Z,100819.16
2023-04-15T23:50:24.099Z,100827.03
2023-04-15T23:52:52.249Z,100826.16
2023-04-15T23:55:20.428Z,100822.69
2023-04-15T23:57:48.458Z,100825.28
